Time;durP1;ratioP1;P1;durP2;ratioP2;P2;SDS_P1;SDS_P2;PMS_P1;PMS_P2;Temp;Humidity;BMP_temperature;BMP_pressure;BME280_temperature;BME280_humidity;BME280_pressure;Samples;Min_cycle;Max_cycle;Signal;HPM_P1;HPM_P2
2023/05/11 00:02:57;;;;;;;7.35;3.38;;;;;;;;;;8532911;27;20137;-93
2023/05/11 00:07:00;;;;;;;7.18;3.10;;;;;;;;;;8532922;27;20126;-94
2023/05/11 00:11:10;;;;;;;5.97;3.05;;;;;;;;;;8498094;27;20160;-90
2023/05/11 00:15:13;;;;;;;5.30;3.13;;;;;;;;;;8494577;27;20413;-89
2023/05/11 00:19:22;;;;;;;8.35;3.65;;;;;;;;;;8524743;27;20055;-89
2023/05/11 00:23:25;;;;;;;10.50;3.40;;;;;;;;;;8523662;27;20468;-93
2023/05/11 00:27:29;;;;;;;8.40;3.72;;;;;;;;;;8533722;27;20050;-92
2023/05/11 00:31:32;;;;;;;5.32;3.13;;;;;;;;;;8537679;27;20038;-95
2023/05/11 00:35:35;;;;;;;6.80;3.22;;;;;;;;;;8537500;27;20118;-93
2023/05/11 00:39:39;;;;;;;7.85;3.28;;;;;;;;;;8533127;27;20038;-94
2023/05/11 00:43:46;;;;;;;6.78;3.53;;;;;;;;;;8529751;27;20045;-89
2023/05/11 00:47:49;;;;;;;5.35;3.40;;;;;;;;;;8502110;27;20470;-93
2023/05/11 00:51:56;;;;;;;7.18;3.58;;;;;;;;;;8538240;27;20049;-90
2023/05/11 00:55:59;;;;;;;6.63;3.22;;;;;;;;;;8505720;27;20070;-95
2023/05/11 01:00:05;;;;;;;6.28;2.90;;;;;;;;;;8537314;27;20034;-92
2023/05/11 01:04:12;;;;;;;7.15;3.20;;;;;;;;;;8520383;27;20051;-90
2023/05/11 01:08:18;;;;;;;5.03;2.85;;;;;;;;;;8527249;27;20074;-93
2023/05/11 01:12:30;;;;;;;5.68;3.38;;;;;;;;;;8537455;27;20117;-95
2023/05/11 01:16:39;;;;;;;5.35;3.10;;;;;;;;;;8543258;27;20126;-94
2023/05/11 01:20:47;;;;;;;7.78;3.55;;;;;;;;;;8545347;27;20055;-92
2023/05/11 01:25:19;;;;;;;6.10;3.05;;;;;;;;;;8557540;27;20048;-92
2023/05/11 01:30:05;;;;;;;8.45;3.22;;;;;;;;;;8527862;27;20050;-89
2023/05/11 01:34:22;;;;;;;5.55;2.72;;;;;;;;;;8517674;27;20106;-93
2023/05/11 01:38:29;;;;;;;11.75;3.45;;;;;;;;;;8554874;27;20034;-93
2023/05/11 01:42:36;;;;;;;7.97;3.50;;;;;;;;;;8543383;27;20051;-89
2023/05/11 01:46:40;;;;;;;5.30;3.30;;;;;;;;;;8537277;27;20046;-90
2023/05/11 01:50:45;;;;;;;4.47;3.17;;;;;;;;;;8537167;27;20504;-89
2023/05/11 01:54:53;;;;;;;7.40;3.28;;;;;;;;;;8523382;27;20042;-89
2023/05/11 01:58:58;;;;;;;8.35;3.42;;;;;;;;;;8505105;27;20142;-94
2023/05/11 02:03:03;;;;;;;6.57;3.10;;;;;;;;;;8523515;27;20047;-89
2023/05/11 02:07:12;;;;;;;4.43;3.17;;;;;;;;;;8516107;27;20066;-88
2023/05/11 02:11:16;;;;;;;6.93;3.28;;;;;;;;;;8528757;27;20049;-89
2023/05/11 02:15:24;;;;;;;8.57;3.22;;;;;;;;;;8526613;27;20344;-92
2023/05/11 02:19:29;;;;;;;6.28;3.67;;;;;;;;;;8494003;27;20099;-93
2023/05/11 02:23:34;;;;;;;6.47;3.30;;;;;;;;;;8536069;27;20055;-92
2023/05/11 02:27:37;;;;;;;6.05;3.08;;;;;;;;;;8538563;27;20042;-93
2023/05/11 02:31:44;;;;;;;5.53;2.90;;;;;;;;;;8537947;27;20046;-95
2023/05/11 02:35:47;;;;;;;5.53;3.30;;;;;;;;;;8536465;27;20070;-93
2023/05/11 02:39:59;;;;;;;5.40;2.83;;;;;;;;;;8537041;27;20043;-92
2023/05/11 02:44:06;;;;;;;8.57;3.40;;;;;;;;;;8512745;27;20110;-91
2023/05/11 02:48:19;;;;;;;7.97;3.10;;;;;;;;;;8538350;27;20043;-95
2023/05/11 02:52:24;;;;;;;7.28;3.47;;;;;;;;;;8523779;27;20046;-95
2023/05/11 02:56:31;;;;;;;7.97;2.83;;;;;;;;;;8528349;27;20102;-93
2023/05/11 03:00:35;;;;;;;6.90;2.72;;;;;;;;;;8539671;27;20042;-93
2023/05/11 03:04:41;;;;;;;11.35;3.42;;;;;;;;;;8539208;27;20049;-91
2023/05/11 03:08:44;;;;;;;7.45;2.92;;;;;;;;;;8522499;27;20039;-95
2023/05/11 03:12:49;;;;;;;5.70;3.00;;;;;;;;;;8525774;27;20039;-93
2023/05/11 03:16:56;;;;;;;5.88;2.88;;;;;;;;;;8536318;27;20470;-95
2023/05/11 03:21:01;;;;;;;4.68;2.80;;;;;;;;;;8536929;27;20050;-90
2023/05/11 03:25:11;;;;;;;5.63;3.10;;;;;;;;;;8523528;27;20482;-89
2023/05/11 03:29:21;;;;;;;6.97;3.05;;;;;;;;;;8520549;27;20049;-88
2023/05/11 03:33:25;;;;;;;5.80;3.20;;;;;;;;;;8528704;27;20047;-96
2023/05/11 03:37:31;;;;;;;5.38;3.50;;;;;;;;;;8540087;27;20466;-91
2023/05/11 03:41:34;;;;;;;8.00;2.72;;;;;;;;;;8541100;27;20042;-94
2023/05/11 03:45:46;;;;;;;4.10;2.55;;;;;;;;;;8538948;27;20039;-89
2023/05/11 03:49:53;;;;;;;6.57;3.17;;;;;;;;;;8526875;27;20121;-92
2023/05/11 03:53:56;;;;;;;10.75;2.70;;;;;;;;;;8521812;27;20051;-95
2023/05/11 03:58:10;;;;;;;6.15;3.17;;;;;;;;;;8544896;27;20051;-95
2023/05/11 04:02:17;;;;;;;8.75;3.67;;;;;;;;;;8544872;27;20046;-93
2023/05/11 04:06:21;;;;;;;13.57;5.63;;;;;;;;;;8550175;27;20058;-92
2023/05/11 04:10:28;;;;;;;10.35;4.00;;;;;;;;;;8554526;27;20046;-91
2023/05/11 04:14:31;;;;;;;13.50;6.63;;;;;;;;;;8559772;27;20051;-89
2023/05/11 04:18:48;;;;;;;5.38;2.85;;;;;;;;;;8551554;27;20074;-91
2023/05/11 04:22:55;;;;;;;6.32;2.92;;;;;;;;;;8562364;27;20089;-90
2023/05/11 04:26:59;;;;;;;9.02;4.57;;;;;;;;;;8418187;22;20132;-89
2023/05/11 04:31:02;;;;;;;6.90;3.22;;;;;;;;;;8411646;28;20044;-89
2023/05/11 04:35:09;;;;;;;4.95;2.65;;;;;;;;;;8439679;28;20063;-90
2023/05/11 04:39:12;;;;;;;5.05;2.20;;;;;;;;;;8441465;28;20067;-88
2023/05/11 04:43:16;;;;;;;5.63;2.53;;;;;;;;;;8411075;28;20064;-88
2023/05/11 04:47:21;;;;;;;5.47;3.00;;;;;;;;;;8397593;28;20169;-89
2023/05/11 04:51:29;;;;;;;3.92;2.20;;;;;;;;;;8389323;28;20045;-89
2023/05/11 04:55:36;;;;;;;6.90;2.88;;;;;;;;;;8407702;28;20059;-90
2023/05/11 05:00:03;;;;;;;6.38;2.78;;;;;;;;;;8377674;28;20056;-89
2023/05/11 05:04:13;;;;;;;7.40;2.45;;;;;;;;;;8413041;28;20049;-94
2023/05/11 05:08:17;;;;;;;4.28;2.45;;;;;;;;;;8402733;28;20535;-90
2023/05/11 05:12:20;;;;;;;5.03;2.75;;;;;;;;;;8400464;28;20441;-90
2023/05/11 05:16:23;;;;;;;5.15;2.67;;;;;;;;;;8384108;28;20085;-92
2023/05/11 05:25:01;;;;;;;3.90;2.30;;;;;;;;;;8385138;28;20061;-92
2023/05/11 05:29:06;;;;;;;3.55;2.30;;;;;;;;;;8398702;28;20048;-93
2023/05/11 05:33:09;;;;;;;5.57;2.97;;;;;;;;;;8400602;28;20110;-88
2023/05/11 05:37:13;;;;;;;6.05;3.85;;;;;;;;;;8402301;28;20055;-90
2023/05/11 05:41:17;;;;;;;9.15;2.65;;;;;;;;;;8391169;28;20052;-90
2023/05/11 05:45:25;;;;;;;5.00;2.45;;;;;;;;;;8397141;28;20049;-91
2023/05/11 05:49:29;;;;;;;5.00;3.03;;;;;;;;;;8386746;28;20048;-88
2023/05/11 05:53:33;;;;;;;8.25;2.83;;;;;;;;;;8407573;28;20487;-92
2023/05/11 05:57:39;;;;;;;6.57;3.75;;;;;;;;;;8379543;28;20093;-91
2023/05/11 06:01:45;;;;;;;8.50;2.90;;;;;;;;;;8406135;28;20419;-90
2023/05/11 06:05:48;;;;;;;4.63;2.50;;;;;;;;;;8407640;28;20044;-90
2023/05/11 06:09:58;;;;;;;5.07;2.72;;;;;;;;;;8380952;28;20316;-88
2023/05/11 06:14:05;;;;;;;4.70;2.40;;;;;;;;;;8354777;28;20049;-90
2023/05/11 06:18:07;;;;;;;7.28;3.17;;;;;;;;;;8369947;28;20053;-89
2023/05/11 06:22:10;;;;;;;6.50;2.88;;;;;;;;;;8367013;28;20055;-89
2023/05/11 06:26:13;;;;;;;7.00;2.97;;;;;;;;;;8365652;28;21003;-88
2023/05/11 06:30:20;;;;;;;6.32;2.67;;;;;;;;;;8366216;28;20462;-88
2023/05/11 06:34:24;;;;;;;6.55;3.00;;;;;;;;;;8396075;28;20101;-92
2023/05/11 06:38:28;;;;;;;7.22;2.75;;;;;;;;;;8396959;28;20067;-92
2023/05/11 06:42:33;;;;;;;3.65;2.08;;;;;;;;;;8396931;28;20377;-93
2023/05/11 06:46:37;;;;;;;6.78;2.88;;;;;;;;;;8383929;28;20041;-93
2023/05/11 06:50:40;;;;;;;8.23;2.90;;;;;;;;;;8397509;28;20488;-91
2023/05/11 06:54:43;;;;;;;11.05;3.20;;;;;;;;;;8396519;28;20044;-91
2023/05/11 06:58:46;;;;;;;4.32;2.50;;;;;;;;;;8396971;28;20602;-90
2023/05/11 07:02:53;;;;;;;5.88;2.72;;;;;;;;;;8391252;28;20124;-92
2023/05/11 07:06:58;;;;;;;4.32;2.78;;;;;;;;;;8397634;28;20048;-88
2023/05/11 07:11:01;;;;;;;7.03;2.63;;;;;;;;;;8391932;28;20068;-90
2023/05/11 07:15:05;;;;;;;9.32;2.25;;;;;;;;;;8405048;28;20049;-93
2023/05/11 07:19:11;;;;;;;6.95;2.50;;;;;;;;;;8388210;28;20049;-90
2023/05/11 07:23:15;;;;;;;8.30;2.78;;;;;;;;;;8400672;28;20062;-92
2023/05/11 07:27:18;;;;;;;3.75;2.33;;;;;;;;;;8402864;28;20059;-95
2023/05/11 07:31:21;;;;;;;5.45;2.53;;;;;;;;;;8399424;28;20519;-90
2023/05/11 07:35:25;;;;;;;9.60;3.63;;;;;;;;;;8358156;28;20044;-90
2023/05/11 07:39:28;;;;;;;5.97;3.03;;;;;;;;;;8353193;28;20053;-89
2023/05/11 07:43:31;;;;;;;5.25;2.45;;;;;;;;;;8374780;28;20128;-92
2023/05/11 07:47:34;;;;;;;4.97;2.38;;;;;;;;;;8358069;28;20404;-89
2023/05/11 07:51:54;;;;;;;5.55;2.42;;;;;;;;;;8380103;28;20105;-90
2023/05/11 07:56:00;;;;;;;3.90;2.42;;;;;;;;;;8358635;28;20550;-93
2023/05/11 08:00:04;;;;;;;7.53;2.40;;;;;;;;;;8369703;28;20426;-90
2023/05/11 08:04:07;;;;;;;3.97;2.45;;;;;;;;;;8370711;28;20041;-91
2023/05/11 08:08:11;;;;;;;4.45;2.58;;;;;;;;;;8349175;28;20118;-89
2023/05/11 08:12:15;;;;;;;5.45;2.70;;;;;;;;;;8352958;28;20054;-91
2023/05/11 08:16:18;;;;;;;4.45;2.65;;;;;;;;;;8388836;28;20048;-92
2023/05/11 08:20:21;;;;;;;4.28;2.60;;;;;;;;;;8370279;28;20052;-90
2023/05/11 08:24:26;;;;;;;10.02;5.10;;;;;;;;;;8372771;28;20160;-94
2023/05/11 08:28:29;;;;;;;5.25;2.60;;;;;;;;;;8401371;28;20153;-92
2023/05/11 08:32:34;;;;;;;6.68;2.95;;;;;;;;;;8400445;28;20120;-91
2023/05/11 08:36:37;;;;;;;4.30;2.45;;;;;;;;;;8371507;28;20036;-90
2023/05/11 08:40:46;;;;;;;5.53;2.90;;;;;;;;;;8395010;28;20477;-91
2023/05/11 08:44:50;;;;;;;4.88;2.60;;;;;;;;;;8386289;28;20053;-91
2023/05/11 08:48:53;;;;;;;4.57;2.50;;;;;;;;;;8355187;28;20096;-91
2023/05/11 08:52:57;;;;;;;6.88;2.80;;;;;;;;;;8382426;28;20159;-90
2023/05/11 08:57:03;;;;;;;10.48;3.70;;;;;;;;;;8399934;28;20056;-93
2023/05/11 09:01:11;;;;;;;10.18;7.10;;;;;;;;;;8401269;28;20032;-93
2023/05/11 09:05:15;;;;;;;5.18;2.67;;;;;;;;;;8431942;28;20047;-91
2023/05/11 09:09:18;;;;;;;5.00;2.65;;;;;;;;;;8422310;28;20044;-92
2023/05/11 09:13:24;;;;;;;4.05;2.47;;;;;;;;;;8387171;28;20127;-93
2023/05/11 09:17:30;;;;;;;4.95;2.35;;;;;;;;;;8371832;28;20085;-93
2023/05/11 09:21:33;;;;;;;7.00;3.83;;;;;;;;;;8372843;28;20680;-92
2023/05/11 09:25:38;;;;;;;3.92;2.50;;;;;;;;;;8385256;28;20094;-93
2023/05/11 09:29:42;;;;;;;4.80;2.55;;;;;;;;;;8378791;28;20048;-90
2023/05/11 09:33:46;;;;;;;5.07;2.78;;;;;;;;;;8360205;28;20074;-93
2023/05/11 09:38:07;;;;;;;6.40;2.63;;;;;;;;;;8388224;28;20453;-93
2023/05/11 09:42:17;;;;;;;6.20;2.50;;;;;;;;;;8380207;28;20045;-93
2023/05/11 09:46:23;;;;;;;5.30;2.20;;;;;;;;;;8393396;28;20481;-91
2023/05/11 09:50:32;;;;;;;7.00;2.45;;;;;;;;;;8378748;28;20098;-91
2023/05/11 09:54:42;;;;;;;4.90;2.42;;;;;;;;;;8370306;28;20041;-90
2023/05/11 09:58:47;;;;;;;7.45;2.47;;;;;;;;;;8400888;28;20044;-91
2023/05/11 10:03:02;;;;;;;12.52;5.22;;;;;;;;;;8394482;28;20045;-92
2023/05/11 10:07:06;;;;;;;10.35;2.75;;;;;;;;;;8400396;28;20045;-92
2023/05/11 10:11:09;;;;;;;10.70;7.65;;;;;;;;;;8373375;28;20436;-91
2023/05/11 10:15:13;;;;;;;11.98;8.10;;;;;;;;;;8390765;28;20051;-92
2023/05/11 10:19:19;;;;;;;4.72;2.70;;;;;;;;;;8395186;28;20048;-92
2023/05/11 10:23:22;;;;;;;50.33;22.10;;;;;;;;;;8393725;28;20045;-91
2023/05/11 10:27:25;;;;;;;16.65;2.70;;;;;;;;;;8332258;28;20049;-90
2023/05/11 10:31:29;;;;;;;3.22;2.30;;;;;;;;;;8320659;28;20051;-89
2023/05/11 10:35:36;;;;;;;8.13;5.13;;;;;;;;;;8331951;28;20111;-90
2023/05/11 10:39:44;;;;;;;3.92;2.58;;;;;;;;;;8333999;28;20560;-89
2023/05/11 10:44:06;;;;;;;5.57;2.90;;;;;;;;;;8331720;28;20056;-89
2023/05/11 10:48:39;;;;;;;5.65;2.08;;;;;;;;;;8330008;28;20053;-89
2023/05/11 10:53:04;;;;;;;5.00;2.75;;;;;;;;;;8330139;28;20045;-88
2023/05/11 10:57:15;;;;;;;4.18;2.40;;;;;;;;;;8330343;28;20049;-88
2023/05/11 11:01:35;;;;;;;;;;;;;;;;;;8346978;28;20508;-89
2023/05/11 11:05:38;;;;;;;4.40;2.72;;;;;;;;;;8329918;28;19971;-90
2023/05/11 11:09:56;;;;;;;5.65;2.60;;;;;;;;;;8329928;28;20088;-89
2023/05/11 11:14:01;;;;;;;13.52;3.70;;;;;;;;;;8316719;28;20532;-89
2023/05/11 11:18:25;;;;;;;5.88;3.00;;;;;;;;;;8330043;28;20424;-89
2023/05/11 11:22:45;;;;;;;15.20;5.65;;;;;;;;;;8326496;28;20119;-89
2023/05/11 11:26:51;;;;;;;13.18;6.38;;;;;;;;;;8357775;28;20081;-88
2023/05/11 11:31:25;;;;;;;7.20;2.95;;;;;;;;;;8339740;28;20065;-89
2023/05/11 11:35:47;;;;;;;9.38;3.40;;;;;;;;;;8352758;28;20129;-89
2023/05/11 11:39:59;;;;;;;6.03;2.90;;;;;;;;;;8352498;28;20048;-90
2023/05/11 11:44:04;;;;;;;13.48;5.47;;;;;;;;;;8357424;28;20048;-90
2023/05/11 11:48:20;;;;;;;26.65;16.63;;;;;;;;;;8348941;28;20040;-90
2023/05/11 11:52:38;;;;;;;21.88;9.63;;;;;;;;;;8353058;28;20815;-90
2023/05/11 11:56:43;;;;;;;7.25;3.03;;;;;;;;;;8342968;28;20389;-91
2023/05/11 12:00:59;;;;;;;6.38;4.88;;;;;;;;;;8340186;28;20052;-92
2023/05/11 12:05:11;;;;;;;6.47;3.00;;;;;;;;;;8358179;28;20107;-90
2023/05/11 12:09:19;;;;;;;8.60;2.55;;;;;;;;;;8357476;28;20057;-92
2023/05/11 12:13:23;;;;;;;4.10;2.60;;;;;;;;;;8351571;28;20053;-91
2023/05/11 12:17:33;;;;;;;5.68;2.55;;;;;;;;;;8339642;28;20057;-90
2023/05/11 12:21:37;;;;;;;3.50;2.28;;;;;;;;;;8346223;28;20047;-90
2023/05/11 12:25:44;;;;;;;1.92;1.75;;;;;;;;;;8343473;28;20119;-89
2023/05/11 12:29:57;;;;;;;2.35;1.90;;;;;;;;;;8374032;28;20393;-91
2023/05/11 12:34:03;;;;;;;5.72;2.30;;;;;;;;;;8376984;28;20048;-90
2023/05/11 12:38:14;;;;;;;4.60;2.45;;;;;;;;;;8372826;28;20045;-91
2023/05/11 12:42:20;;;;;;;4.90;2.88;;;;;;;;;;8375986;28;20052;-90
2023/05/11 12:46:26;;;;;;;6.35;2.38;;;;;;;;;;8362704;28;20052;-91
2023/05/11 12:54:51;;;;;;;4.75;2.78;;;;;;;;;;8353789;28;20124;-91
2023/05/11 12:58:53;;;;;;;7.05;2.55;;;;;;;;;;8340615;28;20061;-92
2023/05/11 13:02:56;;;;;;;4.97;2.20;;;;;;;;;;8348468;28;20051;-91
2023/05/11 13:07:01;;;;;;;3.13;2.15;;;;;;;;;;8377748;28;20547;-91
2023/05/11 13:11:21;;;;;;;4.22;2.17;;;;;;;;;;8357016;28;20151;-91
2023/05/11 13:15:27;;;;;;;3.70;2.17;;;;;;;;;;8363587;28;20072;-92
2023/05/11 13:19:32;;;;;;;4.53;2.20;;;;;;;;;;8383141;28;20158;-91
2023/05/11 13:23:37;;;;;;;3.38;2.15;;;;;;;;;;8346932;28;20046;-92
2023/05/11 13:27:40;;;;;;;3.42;1.85;;;;;;;;;;8335705;28;20741;-89
2023/05/11 13:31:44;;;;;;;3.55;2.10;;;;;;;;;;8345222;28;20051;-89
2023/05/11 13:35:47;;;;;;;3.55;2.10;;;;;;;;;;8347104;28;20053;-89
2023/05/11 13:39:51;;;;;;;3.60;2.00;;;;;;;;;;8344188;28;20047;-89
2023/05/11 13:43:54;;;;;;;5.80;2.30;;;;;;;;;;8347355;28;20091;-89
2023/05/11 13:47:57;;;;;;;4.38;2.45;;;;;;;;;;8347521;28;20080;-89
2023/05/11 13:52:00;;;;;;;6.07;2.42;;;;;;;;;;8338724;28;20045;-89
2023/05/11 13:56:05;;;;;;;6.88;2.38;;;;;;;;;;8352103;28;20064;-90
2023/05/11 14:00:10;;;;;;;4.75;2.10;;;;;;;;;;8379237;28;20082;-91
2023/05/11 14:04:13;;;;;;;4.55;2.10;;;;;;;;;;8384141;28;20618;-92
2023/05/11 14:08:16;;;;;;;2.67;1.98;;;;;;;;;;8396376;28;20032;-91
2023/05/11 14:12:21;;;;;;;3.95;2.10;;;;;;;;;;8411749;28;20037;-91
2023/05/11 14:16:33;;;;;;;4.95;2.35;;;;;;;;;;8421541;28;20073;-93
2023/05/11 14:20:51;;;;;;;2.50;1.90;;;;;;;;;;8370146;28;20065;-91
2023/05/11 14:24:55;;;;;;;7.05;2.20;;;;;;;;;;8346094;28;20049;-90
2023/05/11 14:28:59;;;;;;;5.00;2.80;;;;;;;;;;8378107;28;20041;-90
2023/05/11 14:33:02;;;;;;;3.78;2.40;;;;;;;;;;8371484;28;20050;-91
2023/05/11 14:37:06;;;;;;;2.60;1.92;;;;;;;;;;8376737;28;20058;-92
2023/05/11 14:41:09;;;;;;;4.47;2.30;;;;;;;;;;8370345;28;20083;-92
2023/05/11 14:45:13;;;;;;;8.18;2.80;;;;;;;;;;8359709;28;20080;-93
2023/05/11 14:49:19;;;;;;;4.63;2.28;;;;;;;;;;8349280;28;20178;-91
2023/05/11 14:53:23;;;;;;;3.92;2.47;;;;;;;;;;8355555;28;20087;-92
2023/05/11 14:57:26;;;;;;;5.38;2.78;;;;;;;;;;8379864;28;20510;-92
2023/05/11 15:01:34;;;;;;;3.60;2.50;;;;;;;;;;8365793;28;20098;-90
2023/05/11 15:05:41;;;;;;;5.97;2.20;;;;;;;;;;8371224;28;20147;-91
2023/05/11 15:09:43;;;;;;;4.75;2.85;;;;;;;;;;8341535;28;20065;-91
2023/05/11 15:13:50;;;;;;;6.28;2.83;;;;;;;;;;8352087;28;20044;-90
2023/05/11 15:17:55;;;;;;;3.10;2.45;;;;;;;;;;8366617;28;20153;-90
2023/05/11 15:21:58;;;;;;;5.28;2.67;;;;;;;;;;8372780;28;20500;-92
2023/05/11 15:26:04;;;;;;;3.75;2.10;;;;;;;;;;8375625;28;20064;-90
2023/05/11 15:30:13;;;;;;;10.13;2.88;;;;;;;;;;8326906;28;20052;-91
2023/05/11 15:34:18;;;;;;;4.60;2.90;;;;;;;;;;8360059;28;20037;-90
2023/05/11 15:38:21;;;;;;;5.75;3.03;;;;;;;;;;8373764;28;20048;-90
2023/05/11 15:42:25;;;;;;;9.30;2.85;;;;;;;;;;8382693;28;20041;-90
2023/05/11 15:46:28;;;;;;;5.65;3.03;;;;;;;;;;8345220;28;20055;-90
2023/05/11 15:50:35;;;;;;;4.85;2.65;;;;;;;;;;8351483;28;20048;-90
2023/05/11 15:54:41;;;;;;;5.20;2.63;;;;;;;;;;8336890;28;20049;-89
2023/05/11 15:58:44;;;;;;;6.18;2.92;;;;;;;;;;8354036;28;20128;-91
2023/05/11 16:02:50;;;;;;;4.95;2.88;;;;;;;;;;8393674;28;20488;-91
2023/05/11 16:06:57;;;;;;;8.20;2.90;;;;;;;;;;8384663;28;20087;-90
2023/05/11 16:10:59;;;;;;;6.85;4.00;;;;;;;;;;8375397;28;20036;-90
2023/05/11 16:15:02;;;;;;;7.95;3.20;;;;;;;;;;8400753;28;20416;-90
2023/05/11 16:19:06;;;;;;;9.93;4.45;;;;;;;;;;8379858;28;20056;-91
2023/05/11 16:23:14;;;;;;;7.35;3.30;;;;;;;;;;8393762;28;20081;-90
2023/05/11 16:27:19;;;;;;;7.75;3.50;;;;;;;;;;8368785;28;20139;-89
2023/05/11 16:31:24;;;;;;;6.38;2.92;;;;;;;;;;8401160;28;20480;-90
2023/05/11 16:35:30;;;;;;;13.40;12.10;;;;;;;;;;8354607;28;20045;-91
2023/05/11 16:39:35;;;;;;;8.13;5.10;;;;;;;;;;8355751;28;20049;-93
2023/05/11 16:43:40;;;;;;;10.60;5.50;;;;;;;;;;8328414;28;20089;-91
2023/05/11 16:47:45;;;;;;;12.02;4.80;;;;;;;;;;8351421;28;20045;-90
2023/05/11 16:51:51;;;;;;;7.28;3.78;;;;;;;;;;8330951;28;20477;-90
2023/05/11 16:55:57;;;;;;;6.32;3.75;;;;;;;;;;8353220;28;20098;-90
2023/05/11 17:00:00;;;;;;;19.98;12.52;;;;;;;;;;8351925;28;20518;-91
2023/05/11 17:04:03;;;;;;;6.43;4.00;;;;;;;;;;8348629;28;20048;-90
2023/05/11 17:08:06;;;;;;;9.27;4.32;;;;;;;;;;8346046;28;20485;-90
2023/05/11 17:12:14;;;;;;;5.00;3.75;;;;;;;;;;8345953;28;20067;-90
2023/05/11 17:16:20;;;;;;;20.48;12.25;;;;;;;;;;8339867;28;20058;-90
2023/05/11 17:20:26;;;;;;;7.10;4.35;;;;;;;;;;8349920;28;20047;-90
2023/05/11 17:24:30;;;;;;;11.63;7.47;;;;;;;;;;8332162;28;20072;-90
2023/05/11 17:28:34;;;;;;;213.35;87.95;;;;;;;;;;8350093;28;20045;-90
2023/05/11 17:32:37;;;;;;;60.20;31.70;;;;;;;;;;8345493;28;20485;-90
2023/05/11 17:36:40;;;;;;;83.85;46.10;;;;;;;;;;8363036;28;20634;-90
2023/05/11 17:40:44;;;;;;;26.60;12.10;;;;;;;;;;8374725;28;20147;-88
2023/05/11 17:55:26;;;;;;;15.98;7.90;;;;;;;;;;8378678;28;20063;-92
2023/05/11 17:59:30;;;;;;;107.55;43.65;;;;;;;;;;8393828;28;20068;-91
2023/05/11 18:03:35;;;;;;;45.45;21.02;;;;;;;;;;8386705;28;20041;-89
2023/05/11 18:07:38;;;;;;;83.82;46.20;;;;;;;;;;8388854;28;20040;-90
2023/05/11 18:11:55;;;;;;;37.38;16.48;;;;;;;;;;8372187;28;20091;-91
2023/05/11 18:15:59;;;;;;;40.17;20.50;;;;;;;;;;8372922;28;20468;-90
2023/05/11 18:20:03;;;;;;;28.83;15.20;;;;;;;;;;8375757;28;20051;-90
2023/05/11 18:24:13;;;;;;;21.05;8.77;;;;;;;;;;8373184;28;20727;-90
2023/05/11 18:28:20;;;;;;;29.27;15.60;;;;;;;;;;8339170;28;20058;-88
2023/05/11 18:32:28;;;;;;;10.20;5.68;;;;;;;;;;8346466;28;20461;-90
2023/05/11 18:36:32;;;;;;;26.63;8.70;;;;;;;;;;8346796;28;20045;-90
2023/05/11 18:41:05;;;;;;;11.52;6.20;;;;;;;;;;8349907;28;20045;-90
2023/05/11 18:53:54;;;;;;;71.72;21.70;;;;;;;;;;8337977;28;20034;-90
2023/05/11 18:57:59;;;;;;;66.68;21.52;;;;;;;;;;8347955;28;20041;-89
2023/05/11 19:02:04;;;;;;;31.35;16.88;;;;;;;;;;8347983;28;20056;-90
2023/05/11 19:06:09;;;;;;;25.70;8.40;;;;;;;;;;8348925;28;20044;-89
2023/05/11 19:10:17;;;;;;;26.27;8.32;;;;;;;;;;8334016;28;20048;-90
2023/05/11 19:14:22;;;;;;;34.30;12.02;;;;;;;;;;8328427;28;20047;-90
2023/05/11 19:18:38;;;;;;;47.13;25.23;;;;;;;;;;8346619;28;20050;-90
2023/05/11 19:22:55;;;;;;;16.50;9.38;;;;;;;;;;8330764;28;20051;-90
2023/05/11 19:27:06;;;;;;;21.70;7.28;;;;;;;;;;8391874;28;20055;-89
2023/05/11 19:31:11;;;;;;;36.47;10.57;;;;;;;;;;8414930;28;20503;-90
2023/05/11 19:35:18;;;;;;;12.95;4.82;;;;;;;;;;8430721;28;20036;-90
2023/05/11 19:39:23;;;;;;;11.75;5.10;;;;;;;;;;8432111;28;20040;-90
2023/05/11 19:43:28;;;;;;;22.98;9.68;;;;;;;;;;8416502;28;20044;-88
2023/05/11 19:47:34;;;;;;;14.50;8.68;;;;;;;;;;8411869;28;20060;-90
2023/05/11 19:51:54;;;;;;;8.55;4.68;;;;;;;;;;8399029;28;20044;-90
2023/05/11 19:55:58;;;;;;;12.90;6.53;;;;;;;;;;8360941;28;20057;-89
2023/05/11 20:00:04;;;;;;;12.27;4.47;;;;;;;;;;8347515;28;20090;-89
2023/05/11 20:04:11;;;;;;;7.57;5.20;;;;;;;;;;8354447;28;20051;-89
2023/05/11 20:08:16;;;;;;;15.48;9.23;;;;;;;;;;8377110;28;20507;-88
2023/05/11 20:12:19;;;;;;;14.93;8.27;;;;;;;;;;8394778;28;20413;-89
2023/05/11 20:16:25;;;;;;;10.10;6.07;;;;;;;;;;8394469;28;20048;-88
2023/05/11 20:20:28;;;;;;;10.30;5.40;;;;;;;;;;8394166;28;20047;-90
2023/05/11 20:24:33;;;;;;;6.70;3.25;;;;;;;;;;8394610;28;20080;-91
2023/05/11 20:28:38;;;;;;;5.30;3.20;;;;;;;;;;8363598;28;20068;-88
2023/05/11 20:32:41;;;;;;;7.20;3.22;;;;;;;;;;8395224;28;20052;-88
2023/05/11 20:36:47;;;;;;;5.07;3.03;;;;;;;;;;8394159;28;20587;-88
2023/05/11 20:40:59;;;;;;;4.70;3.15;;;;;;;;;;8394123;28;20064;-88
2023/05/11 20:45:06;;;;;;;6.55;3.33;;;;;;;;;;8397343;28;20068;-88
2023/05/11 20:49:12;;;;;;;5.72;3.10;;;;;;;;;;8382471;28;20080;-88
2023/05/11 20:53:15;;;;;;;7.43;3.20;;;;;;;;;;8399975;28;20040;-89
2023/05/11 20:57:20;;;;;;;7.30;3.30;;;;;;;;;;8399761;28;20048;-89
2023/05/11 21:01:25;;;;;;;5.90;3.00;;;;;;;;;;8400192;28;20127;-90
2023/05/11 21:05:27;;;;;;;5.88;3.80;;;;;;;;;;8382501;28;20535;-90
2023/05/11 21:09:33;;;;;;;9.48;3.67;;;;;;;;;;8381981;28;20408;-91
2023/05/11 21:13:38;;;;;;;5.93;3.47;;;;;;;;;;8368789;28;20071;-91
2023/05/11 21:17:41;;;;;;;7.13;3.80;;;;;;;;;;8398981;28;20105;-90
2023/05/11 21:21:44;;;;;;;4.07;2.67;;;;;;;;;;8398009;28;20048;-90
2023/05/11 21:25:52;;;;;;;6.78;3.45;;;;;;;;;;8387815;28;20059;-91
2023/05/11 21:29:58;;;;;;;6.13;3.47;;;;;;;;;;8399015;28;20058;-90
2023/05/11 21:34:04;;;;;;;8.48;3.78;;;;;;;;;;8398618;28;20123;-91
2023/05/11 21:38:07;;;;;;;8.48;3.70;;;;;;;;;;8398298;28;20480;-90
2023/05/11 21:42:10;;;;;;;12.98;4.05;;;;;;;;;;8398833;28;20064;-91
2023/05/11 21:46:19;;;;;;;6.85;3.83;;;;;;;;;;8397457;28;20060;-90
2023/05/11 21:50:22;;;;;;;6.93;3.70;;;;;;;;;;8398767;28;20044;-90
2023/05/11 21:54:25;;;;;;;6.68;3.70;;;;;;;;;;8397737;28;20449;-91
2023/05/11 21:58:28;;;;;;;7.15;4.05;;;;;;;;;;8397974;28;20040;-90
2023/05/11 22:02:32;;;;;;;10.95;4.35;;;;;;;;;;8398176;28;20083;-90
2023/05/11 22:06:38;;;;;;;10.27;4.50;;;;;;;;;;8397585;28;20484;-90
2023/05/11 22:10:43;;;;;;;7.32;4.00;;;;;;;;;;8397760;28;20051;-90
2023/05/11 22:14:46;;;;;;;7.80;3.83;;;;;;;;;;8397496;28;20098;-90
2023/05/11 22:18:51;;;;;;;6.25;3.45;;;;;;;;;;8397201;28;20423;-90
2023/05/11 22:22:56;;;;;;;8.55;3.80;;;;;;;;;;8379963;28;20170;-90
2023/05/11 22:27:00;;;;;;;8.52;4.10;;;;;;;;;;8396852;28;20086;-90
2023/05/11 22:31:06;;;;;;;8.93;3.90;;;;;;;;;;8397246;28;20052;-90
2023/05/11 22:35:11;;;;;;;7.53;3.90;;;;;;;;;;8379197;28;20049;-90
2023/05/11 22:39:14;;;;;;;9.68;4.28;;;;;;;;;;8396338;28;20127;-90
2023/05/11 22:43:17;;;;;;;10.25;3.97;;;;;;;;;;8396099;28;20049;-91
2023/05/11 22:47:19;;;;;;;6.80;4.30;;;;;;;;;;8379332;28;20508;-90
2023/05/11 22:51:28;;;;;;;7.70;3.95;;;;;;;;;;8396301;28;20490;-90
2023/05/11 22:55:31;;;;;;;7.68;3.92;;;;;;;;;;8384514;28;20047;-89
2023/05/11 22:59:34;;;;;;;8.38;4.38;;;;;;;;;;8394834;28;20444;-89
2023/05/11 23:03:40;;;;;;;7.60;4.10;;;;;;;;;;8396360;28;20473;-89
2023/05/11 23:07:45;;;;;;;7.53;4.30;;;;;;;;;;8395600;28;20187;-90
2023/05/11 23:11:48;;;;;;;7.00;3.83;;;;;;;;;;8395831;28;20484;-90
2023/05/11 23:15:53;;;;;;;7.57;4.40;;;;;;;;;;8396032;28;20403;-89
2023/05/11 23:19:57;;;;;;;10.70;4.32;;;;;;;;;;8378904;28;20064;-90
2023/05/11 23:24:05;;;;;;;9.35;4.53;;;;;;;;;;8361889;28;20061;-89
2023/05/11 23:28:10;;;;;;;11.18;4.43;;;;;;;;;;8395310;28;20538;-89
2023/05/11 23:32:13;;;;;;;8.65;4.10;;;;;;;;;;8395470;28;20477;-89
2023/05/11 23:36:15;;;;;;;8.13;4.70;;;;;;;;;;8378283;28;20056;-89
2023/05/11 23:40:20;;;;;;;10.80;4.63;;;;;;;;;;8374139;28;20090;-89
2023/05/11 23:44:23;;;;;;;8.88;4.13;;;;;;;;;;8395185;28;20446;-90
2023/05/11 23:48:26;;;;;;;11.30;4.85;;;;;;;;;;8395945;28;20132;-90
2023/05/11 23:52:31;;;;;;;7.07;4.18;;;;;;;;;;8395353;28;20048;-90
2023/05/11 23:56:38;;;;;;;9.65;5.00;;;;;;;;;;8395328;28;20102;-89
